Frank Wiley Field
KMLS : now visible

Airfield :











YOU CAN JOIN US ON...

 
LOGIN :

Register | Disclaimer

   EN    FR    IT 

 









Legend :    VFR   Marginal VFR   IFR   Intensive IFR   Very Intensive IFR
Visi :
Ceiling :
>= 8 km
>= 3000ft
5 to 8 km
1000 to 3000 ft
1500m to 5 km
500 to 1000 ft
800 to 1500m
200 to 500 ft
< 800m
< 200 ft
Symbols :   Thunderstorms  Fog  Heavy snow  Heavy precipitations  Wind > 20 kt






- Airport Elevation : 2630 ft
- IATA code : MLS


KMLS - Frank Wiley Field

CURRENT METAR :
  • 120553Z AUTO 26007KT 10SM FEW095 M03/M04 A2991 RMK AO2 SLP163 60000 T10331044 11006 21050 53004

EXPIRED METARs :
  • 120453Z AUTO 26010KT 10SM FEW075 OVC110 M01/M02 A2990 RMK AO2 SLP157 T10061022
  • 120353Z AUTO 20008KT 10SM BKN045 OVC095 M03/M04 A2988 RMK AO2 SLP155 T10281039

TAF KMLS
Valid from the 12 at 06:00 until the 13 at 06:00 UTC


120536Z 1206/1306 26010KT P6SM VCSH FEW080 OVC110
FM120900 VRB05KT 1/2SM FG BKN025
FM121500 VRB05KT P6SM BKN025
FM121800 21008KT P6SM BKN090



MET'MAP, your aeronautical weather chart ! - Copyright ORBIFLY December 2007 - Disclaimer

ORBIFLY MET'MAP TEAM :

Programming & Development : Alexandra Zaïnal
Concept & original design : Baudouin d'Aumeries
Assistance for programming : Marc-Olivier Méhu
Technical & hardware support : Manuel Goepfert

Contact : metmap@orbifly.com




SOURCES & CREDITS :

   NOAA       Earth
Advisory